This is the latest recevied weather packets stored in our database for station/object WD4DAN-13. If no packets are shown the sender has not sent any weather packets the latest 10 day(s).
| Time | Temp. | Humidity | Pressure | Rain* | Wind** | Luminosity | Snow |
|---|---|---|---|---|---|---|---|
| 1777970767 | 13.89° C | 96% | - | 0 mm | - | - | - |
| 1777970465 | 13.89° C | 96% | - | 0 mm | - | - | - |
| 1777970161 | 13.89° C | 95% | - | 0 mm | - | - | - |
| 1777969857 | 13.89° C | 95% | - | 0 mm | - | - | - |
| 1777950470 | 18.33° C | 68% | - | 0 mm | - | - | - |
| 1777950167 | 18.33° C | 68% | - | 0 mm | - | - | - |
| 1777949862 | 18.89° C | 68% | - | 0 mm | - | - | - |
| 1777949560 | 18.89° C | 67% | - | 0 mm | - | - | - |
| 1777949258 | 18.89° C | 66% | - | 0 mm | - | - | - |
| 1777948955 | 18.89° C | 66% | - | 0 mm | - | - | - |
| 1777948652 | 18.33° C | 66% | - | 0 mm | - | - | - |
| 1777948350 | 17.78° C | 64% | - | 0 mm | - | - | - |
| 1777948047 | 17.22° C | 65% | - | 0 mm | - | - | - |
| 1777947744 | 17.78° C | 62% | - | 0 mm | - | - | - |
| 1777947440 | 17.22° C | 62% | - | 0 mm | - | - | - |
| 1777947138 | 17.22° C | 69% | - | 0 mm | - | - | - |
| 1777946833 | 17.22° C | 69% | - | 0 mm | - | - | - |
| 1777946529 | 17.78° C | 67% | - | 0 mm | - | - | - |
| 1777946226 | 17.78° C | 65% | - | 0 mm | - | - | - |
| 1777945923 | 18.33° C | 64% | - | 0 mm | - | - | - |
| 1777945620 | 18.89° C | 58% | - | 0 mm | - | - | - |
| 1777945317 | 18.89° C | 56% | - | 0 mm | - | - | - |
| 1777945014 | 18.89° C | 61% | - | 0 mm | - | - | - |
| 1777944711 | 18.89° C | 61% | - | 0 mm | - | - | - |
| 1777944409 | 19.44° C | 60% | - | 0 mm | - | - | - |
* Rain latest hour (hover to see other rain measurements)
** Current wind speed in m/s (hover to see current wind gust speed)